createdAt,value
2022-11-09T00:01:30.725Z,5.97
2022-11-09T00:06:33.559Z,5.45
2022-11-09T00:11:37.378Z,5.22
2022-11-09T00:16:39.162Z,5.60
2022-11-09T00:21:40.914Z,4.90
2022-11-09T00:26:42.757Z,4.97
2022-11-09T00:31:44.539Z,5.47
2022-11-09T00:36:46.351Z,5.35
2022-11-09T00:41:48.127Z,5.30
2022-11-09T00:46:49.898Z,5.43
2022-11-09T00:51:52.853Z,5.10
2022-11-09T00:56:54.634Z,6.03
2022-11-09T01:01:56.561Z,5.57
2022-11-09T01:06:58.406Z,5.50
2022-11-09T01:12:00.276Z,5.88
2022-11-09T01:17:02.107Z,5.70
2022-11-09T01:22:03.943Z,5.57
2022-11-09T01:27:05.743Z,5.45
2022-11-09T01:32:07.541Z,6.30
2022-11-09T01:37:09.333Z,4.65
2022-11-09T01:42:11.168Z,5.10
2022-11-09T01:47:25.123Z,4.80
2022-11-09T01:52:38.763Z,7.63
2022-11-09T01:57:53.942Z,4.72
2022-11-09T02:03:05.205Z,4.20
2022-11-09T02:08:10.565Z,4.38
2022-11-09T02:13:16.426Z,4.43
2022-11-09T02:18:19.808Z,4.75
2022-11-09T02:23:22.507Z,4.63
2022-11-09T02:28:26.436Z,5.90
2022-11-09T02:33:28.507Z,4.32
2022-11-09T02:38:30.421Z,4.68
2022-11-09T02:43:32.405Z,5.55
2022-11-09T02:48:35.169Z,4.20
2022-11-09T02:53:37.029Z,6.65
2022-11-09T02:58:38.956Z,4.20
2022-11-09T03:03:41.149Z,4.20
2022-11-09T03:08:42.974Z,3.92
2022-11-09T03:13:45.400Z,4.50
2022-11-09T03:18:49.131Z,4.28
2022-11-09T03:23:51.485Z,4.18
2022-11-09T03:28:53.497Z,3.50
2022-11-09T03:33:55.306Z,3.08
2022-11-09T03:38:57.191Z,3.63
2022-11-09T03:43:59.267Z,3.97
2022-11-09T03:49:01.074Z,3.67
2022-11-09T03:54:02.931Z,3.40
2022-11-09T03:59:04.859Z,3.53
2022-11-09T04:04:06.992Z,3.53
2022-11-09T04:09:10.164Z,4.28
2022-11-09T04:14:12.129Z,4.07
2022-11-09T04:19:14.055Z,4.20
2022-11-09T04:24:16.123Z,3.78
2022-11-09T04:29:17.884Z,3.95
2022-11-09T04:34:19.631Z,5.32
2022-11-09T04:39:21.419Z,4.10
2022-11-09T04:44:23.214Z,3.90
2022-11-09T04:49:25.115Z,3.72
2022-11-09T04:54:26.971Z,3.80
2022-11-09T04:59:28.804Z,4.03
2022-11-09T05:04:30.654Z,4.40
2022-11-09T05:09:32.440Z,4.07
2022-11-09T05:14:34.191Z,4.03
2022-11-09T05:19:36.058Z,4.50
2022-11-09T05:24:37.839Z,4.55
2022-11-09T05:29:39.661Z,5.97
2022-11-09T05:34:41.271Z,5.25
2022-11-09T05:39:42.924Z,8.95
2022-11-09T05:44:44.519Z,6.95
2022-11-09T05:49:46.132Z,7.63
2022-11-09T05:54:47.792Z,7.05
2022-11-09T05:59:49.371Z,8.55
2022-11-09T06:04:50.975Z,7.88
2022-11-09T06:09:52.630Z,7.10
2022-11-09T06:14:54.341Z,6.43
2022-11-09T06:19:55.977Z,8.98
2022-11-09T06:24:57.601Z,7.22
2022-11-09T06:29:59.166Z,6.07
2022-11-09T06:35:00.758Z,6.53
2022-11-09T06:40:02.349Z,7.00
2022-11-09T06:45:04.325Z,6.72
2022-11-09T06:50:06.402Z,5.50
2022-11-09T06:55:08.883Z,7.60
2022-11-09T07:00:11.203Z,6.10
2022-11-09T07:05:13.182Z,6.03
2022-11-09T07:10:14.980Z,6.60
2022-11-09T07:15:17.568Z,5.80
2022-11-09T07:20:19.306Z,5.80
2022-11-09T07:25:21.128Z,6.00
2022-11-09T07:30:22.715Z,6.43
2022-11-09T07:35:24.288Z,6.05
2022-11-09T07:40:25.864Z,5.60
2022-11-09T07:45:31.294Z,6.40
2022-11-09T07:50:34.729Z,6.60
2022-11-09T07:55:36.682Z,6.30
2022-11-09T08:00:39.974Z,6.53
2022-11-09T08:05:41.585Z,6.38
2022-11-09T08:10:44.373Z,6.93
2022-11-09T08:15:46.861Z,6.40
2022-11-09T08:20:49.474Z,6.45
2022-11-09T08:25:51.245Z,6.88
2022-11-09T08:30:59.883Z,6.88
2022-11-09T08:36:01.769Z,6.95
2022-11-09T08:41:03.484Z,6.03
2022-11-09T08:46:05.262Z,6.75
2022-11-09T08:51:06.922Z,6.25
2022-11-09T08:56:09.604Z,7.38
2022-11-09T09:01:16.695Z,8.27
2022-11-09T09:06:18.913Z,5.65
2022-11-09T09:11:20.529Z,6.68
2022-11-09T09:16:22.157Z,5.88
2022-11-09T09:21:23.756Z,5.88
2022-11-09T09:26:25.304Z,5.32
2022-11-09T09:31:27.529Z,5.88
2022-11-09T09:36:30.325Z,3.60
2022-11-09T09:41:37.189Z,3.60
2022-11-09T09:46:47.623Z,3.78
2022-11-09T09:51:58.184Z,3.20
2022-11-09T09:57:01.974Z,4.43
2022-11-09T10:02:03.633Z,4.90
2022-11-09T10:07:20.467Z,4.88
2022-11-09T10:12:32.628Z,4.18
2022-11-09T10:17:52.481Z,4.78
2022-11-09T10:23:04.020Z,4.10
2022-11-09T10:28:13.266Z,4.38
2022-11-09T10:33:21.457Z,4.25
2022-11-09T10:38:36.250Z,4.30
2022-11-09T10:43:56.553Z,4.30
2022-11-09T10:49:20.899Z,4.05
2022-11-09T10:54:41.236Z,4.30
2022-11-09T11:00:02.450Z,5.10
2022-11-09T11:05:28.552Z,5.65
2022-11-09T11:10:55.178Z,4.78
2022-11-09T11:16:32.879Z,5.05
2022-11-09T11:22:11.528Z,5.25
2022-11-09T11:27:43.991Z,5.50
2022-11-09T11:33:22.350Z,6.03
2022-11-09T11:39:01.560Z,5.65
2022-11-09T11:44:50.633Z,5.20
2022-11-09T11:50:27.240Z,5.22
2022-11-09T11:56:09.270Z,5.05
2022-11-09T12:01:29.433Z,5.18
2022-11-09T12:06:58.400Z,5.10
2022-11-09T12:12:40.327Z,5.10
2022-11-09T12:18:22.037Z,5.00
2022-11-09T12:23:45.036Z,5.45
2022-11-09T12:29:11.326Z,5.18
2022-11-09T12:35:13.881Z,4.70
2022-11-09T12:40:39.629Z,5.15
2022-11-09T12:46:01.939Z,4.70
2022-11-09T12:51:22.713Z,4.65
2022-11-09T12:56:54.297Z,4.80
2022-11-09T13:02:42.689Z,5.15
2022-11-09T13:08:05.999Z,4.80
2022-11-09T13:13:26.148Z,4.63
2022-11-09T13:18:51.965Z,5.00
2022-11-09T13:24:30.324Z,5.00
2022-11-09T13:29:56.354Z,5.03
2022-11-09T13:35:42.327Z,5.38
2022-11-09T13:41:32.017Z,5.55
2022-11-09T13:46:53.829Z,6.35
2022-11-09T13:53:08.297Z,6.20
2022-11-09T13:58:38.527Z,5.90
2022-11-09T14:03:58.754Z,5.80
2022-11-09T14:09:20.555Z,5.28
2022-11-09T14:15:02.142Z,5.90
2022-11-09T14:20:33.082Z,6.25
2022-11-09T14:25:53.556Z,5.90
2022-11-09T14:31:28.278Z,6.38
2022-11-09T14:36:48.276Z,5.72
2022-11-09T14:42:17.255Z,6.20
2022-11-09T14:47:38.185Z,6.07
2022-11-09T14:52:59.171Z,6.10
2022-11-09T14:58:21.454Z,5.93
2022-11-09T15:03:42.148Z,5.47
2022-11-09T15:09:07.774Z,5.63
2022-11-09T15:14:34.889Z,5.70
2022-11-09T15:20:22.575Z,5.10
2022-11-09T15:25:43.523Z,6.50
2022-11-09T15:31:04.049Z,5.97
2022-11-09T15:36:33.700Z,5.70
2022-11-09T15:41:53.848Z,7.40
2022-11-09T15:47:31.589Z,6.95
2022-11-09T15:52:52.608Z,7.95
2022-11-09T15:58:15.263Z,5.45
2022-11-09T16:03:35.441Z,4.70
2022-11-09T16:08:55.935Z,4.70
2022-11-09T16:14:17.898Z,4.90
2022-11-09T16:19:39.681Z,4.88
2022-11-09T16:24:59.961Z,4.30
2022-11-09T16:30:21.639Z,4.97
2022-11-09T16:35:42.019Z,5.65
2022-11-09T16:41:03.723Z,5.32
2022-11-09T16:46:29.410Z,4.70
2022-11-09T16:51:49.587Z,5.38
2022-11-09T16:57:09.825Z,6.65
2022-11-09T17:02:30.200Z,6.43
2022-11-09T17:07:50.452Z,5.30
2022-11-09T17:13:12.040Z,5.13
2022-11-09T17:18:32.286Z,5.32
2022-11-09T17:23:54.396Z,5.32
2022-11-09T17:29:15.184Z,6.28
2022-11-09T17:34:35.558Z,6.50
2022-11-09T17:39:55.652Z,6.40
2022-11-09T17:45:16.092Z,6.65
2022-11-09T17:50:36.212Z,5.35
2022-11-09T17:55:56.750Z,6.72
2022-11-09T18:01:20.864Z,5.90
2022-11-09T18:06:41.241Z,5.40
2022-11-09T18:12:01.685Z,6.10
2022-11-09T18:17:21.920Z,5.97
2022-11-09T18:22:42.278Z,5.78
2022-11-09T18:28:02.730Z,6.60
2022-11-09T18:33:22.993Z,6.50
2022-11-09T18:38:45.083Z,6.00
2022-11-09T18:44:05.963Z,5.10
2022-11-09T18:49:25.912Z,5.95
2022-11-09T18:54:46.516Z,6.45
2022-11-09T19:00:07.380Z,5.53
2022-11-09T19:05:27.619Z,6.60
2022-11-09T19:10:47.672Z,6.10
2022-11-09T19:16:11.750Z,7.75
2022-11-09T19:21:48.277Z,6.47
2022-11-09T19:27:09.303Z,5.40
2022-11-09T19:32:29.857Z,5.60
2022-11-09T19:37:50.157Z,7.57
2022-11-09T19:43:10.399Z,6.63
2022-11-09T19:48:32.189Z,7.40
2022-11-09T19:53:56.473Z,5.45
2022-11-09T19:59:17.788Z,5.28
2022-11-09T20:04:38.106Z,6.35
2022-11-09T20:09:58.676Z,8.85
2022-11-09T20:15:19.444Z,7.57
2022-11-09T20:20:39.661Z,6.07
2022-11-09T20:26:07.913Z,6.88
2022-11-09T20:31:28.167Z,6.53
2022-11-09T20:36:48.359Z,7.07
2022-11-09T20:42:10.165Z,8.65
2022-11-09T20:47:57.625Z,8.35
2022-11-09T20:53:11.547Z,6.93
2022-11-09T20:58:31.833Z,4.95
2022-11-09T21:03:53.206Z,7.15
2022-11-09T21:09:13.539Z,4.13
2022-11-09T21:14:33.735Z,3.63
2022-11-09T21:19:53.998Z,5.35
2022-11-09T21:25:32.833Z,5.45
2022-11-09T21:30:53.026Z,3.83
2022-11-09T21:36:14.874Z,6.03
2022-11-09T21:41:38.024Z,5.03
2022-11-09T21:46:58.973Z,6.38
2022-11-09T21:52:19.404Z,6.18
2022-11-09T21:57:39.724Z,5.45
2022-11-09T22:03:02.087Z,5.97
2022-11-09T22:08:22.423Z,7.90
2022-11-09T22:14:01.638Z,5.15
2022-11-09T22:19:40.132Z,6.97
2022-11-09T22:25:00.290Z,6.75
2022-11-09T22:30:20.913Z,4.35
2022-11-09T22:35:41.234Z,4.13
2022-11-09T22:41:07.680Z,5.43
2022-11-09T22:46:28.472Z,3.95
2022-11-09T22:51:48.646Z,5.18
2022-11-09T22:57:09.140Z,3.85
2022-11-09T23:02:29.557Z,3.80
2022-11-09T23:07:49.890Z,5.38
2022-11-09T23:13:10.192Z,6.70
2022-11-09T23:18:48.916Z,5.65
2022-11-09T23:24:29.137Z,5.20
2022-11-09T23:29:49.359Z,4.10
2022-11-09T23:35:10.485Z,5.55
2022-11-09T23:40:33.575Z,6.10
2022-11-09T23:45:54.153Z,4.45
2022-11-09T23:51:14.238Z,4.88
2022-11-09T23:56:34.723Z,5.05
